sensor_id;sensor_type;location;lat;lon;timestamp;P1;durP1;ratioP1;P2;durP2;ratioP2
13441;SDS011;6793;55.662;13.114;2023-06-22T00:01:32;0.00;;;0.00;;
13441;SDS011;6793;55.662;13.114;2023-06-22T00:04:00;0.00;;;0.00;;
13441;SDS011;6793;55.662;13.114;2023-06-22T00:06:27;0.00;;;0.00;;
13441;SDS011;6793;55.662;13.114;2023-06-22T00:08:54;0.00;;;0.00;;
13441;SDS011;6793;55.662;13.114;2023-06-22T00:11:21;0.00;;;0.00;;
13441;SDS011;6793;55.662;13.114;2023-06-22T00:13:48;0.00;;;0.00;;
13441;SDS011;6793;55.662;13.114;2023-06-22T00:16:16;0.00;;;0.00;;
13441;SDS011;6793;55.662;13.114;2023-06-22T00:18:44;0.00;;;0.00;;
13441;SDS011;6793;55.662;13.114;2023-06-22T00:21:12;0.00;;;0.00;;
13441;SDS011;6793;55.662;13.114;2023-06-22T00:23:39;0.00;;;0.00;;
13441;SDS011;6793;55.662;13.114;2023-06-22T00:26:06;0.00;;;0.00;;
13441;SDS011;6793;55.662;13.114;2023-06-22T00:28:33;0.00;;;0.00;;
13441;SDS011;6793;55.662;13.114;2023-06-22T00:31:00;0.00;;;0.00;;
13441;SDS011;6793;55.662;13.114;2023-06-22T00:33:27;0.00;;;0.00;;
13441;SDS011;6793;55.662;13.114;2023-06-22T00:35:56;0.00;;;0.00;;
13441;SDS011;6793;55.662;13.114;2023-06-22T00:38:23;0.00;;;0.00;;
13441;SDS011;6793;55.662;13.114;2023-06-22T00:40:50;0.00;;;0.00;;
13441;SDS011;6793;55.662;13.114;2023-06-22T00:43:17;0.00;;;0.00;;
13441;SDS011;6793;55.662;13.114;2023-06-22T00:45:44;0.00;;;0.00;;
13441;SDS011;6793;55.662;13.114;2023-06-22T00:48:11;0.00;;;0.00;;
13441;SDS011;6793;55.662;13.114;2023-06-22T00:50:38;0.00;;;0.00;;
13441;SDS011;6793;55.662;13.114;2023-06-22T00:53:08;0.00;;;0.00;;
13441;SDS011;6793;55.662;13.114;2023-06-22T00:55:36;0.00;;;0.00;;
13441;SDS011;6793;55.662;13.114;2023-06-22T00:58:04;0.00;;;0.00;;
13441;SDS011;6793;55.662;13.114;2023-06-22T01:00:35;0.00;;;0.00;;
13441;SDS011;6793;55.662;13.114;2023-06-22T01:03:02;0.00;;;0.00;;
13441;SDS011;6793;55.662;13.114;2023-06-22T01:05:31;0.00;;;0.00;;
13441;SDS011;6793;55.662;13.114;2023-06-22T01:08:00;0.00;;;0.00;;
13441;SDS011;6793;55.662;13.114;2023-06-22T01:10:34;0.00;;;0.00;;
13441;SDS011;6793;55.662;13.114;2023-06-22T01:13:05;0.00;;;0.00;;
13441;SDS011;6793;55.662;13.114;2023-06-22T01:15:35;0.00;;;0.00;;
13441;SDS011;6793;55.662;13.114;2023-06-22T01:18:04;0.00;;;0.00;;
13441;SDS011;6793;55.662;13.114;2023-06-22T01:20:31;0.00;;;0.00;;
13441;SDS011;6793;55.662;13.114;2023-06-22T01:23:07;0.00;;;0.00;;
13441;SDS011;6793;55.662;13.114;2023-06-22T01:25:41;0.00;;;0.00;;
13441;SDS011;6793;55.662;13.114;2023-06-22T01:28:13;0.00;;;0.00;;
13441;SDS011;6793;55.662;13.114;2023-06-22T01:30:46;0.00;;;0.00;;
13441;SDS011;6793;55.662;13.114;2023-06-22T01:33:15;0.00;;;0.00;;
13441;SDS011;6793;55.662;13.114;2023-06-22T01:35:42;0.00;;;0.00;;
13441;SDS011;6793;55.662;13.114;2023-06-22T01:38:10;0.00;;;0.00;;
13441;SDS011;6793;55.662;13.114;2023-06-22T01:40:37;0.00;;;0.00;;
13441;SDS011;6793;55.662;13.114;2023-06-22T01:43:04;0.00;;;0.00;;
13441;SDS011;6793;55.662;13.114;2023-06-22T01:45:31;0.00;;;0.00;;
13441;SDS011;6793;55.662;13.114;2023-06-22T01:48:00;0.00;;;0.00;;
13441;SDS011;6793;55.662;13.114;2023-06-22T01:50:27;0.00;;;0.00;;
13441;SDS011;6793;55.662;13.114;2023-06-22T01:52:55;0.00;;;0.00;;
13441;SDS011;6793;55.662;13.114;2023-06-22T01:55:22;0.00;;;0.00;;
13441;SDS011;6793;55.662;13.114;2023-06-22T01:57:49;0.00;;;0.00;;
13441;SDS011;6793;55.662;13.114;2023-06-22T02:00:18;0.00;;;0.00;;
13441;SDS011;6793;55.662;13.114;2023-06-22T02:02:50;0.00;;;0.00;;
13441;SDS011;6793;55.662;13.114;2023-06-22T02:05:20;0.00;;;0.00;;
13441;SDS011;6793;55.662;13.114;2023-06-22T02:07:49;0.00;;;0.00;;
13441;SDS011;6793;55.662;13.114;2023-06-22T02:10:19;0.00;;;0.00;;
13441;SDS011;6793;55.662;13.114;2023-06-22T02:12:47;0.00;;;0.00;;
13441;SDS011;6793;55.662;13.114;2023-06-22T02:15:15;0.00;;;0.00;;
13441;SDS011;6793;55.662;13.114;2023-06-22T02:17:42;0.00;;;0.00;;
13441;SDS011;6793;55.662;13.114;2023-06-22T02:20:11;0.00;;;0.00;;
13441;SDS011;6793;55.662;13.114;2023-06-22T02:22:40;0.00;;;0.00;;
13441;SDS011;6793;55.662;13.114;2023-06-22T02:25:07;0.00;;;0.00;;
13441;SDS011;6793;55.662;13.114;2023-06-22T02:27:35;0.00;;;0.00;;
13441;SDS011;6793;55.662;13.114;2023-06-22T02:30:05;0.00;;;0.00;;
13441;SDS011;6793;55.662;13.114;2023-06-22T02:32:33;0.00;;;0.00;;
13441;SDS011;6793;55.662;13.114;2023-06-22T02:35:00;0.00;;;0.00;;
13441;SDS011;6793;55.662;13.114;2023-06-22T02:37:29;0.00;;;0.00;;
13441;SDS011;6793;55.662;13.114;2023-06-22T02:39:57;0.00;;;0.00;;
13441;SDS011;6793;55.662;13.114;2023-06-22T02:42:24;0.00;;;0.00;;
13441;SDS011;6793;55.662;13.114;2023-06-22T02:44:51;0.00;;;0.00;;
13441;SDS011;6793;55.662;13.114;2023-06-22T02:47:18;0.00;;;0.00;;
13441;SDS011;6793;55.662;13.114;2023-06-22T02:49:45;0.00;;;0.00;;
13441;SDS011;6793;55.662;13.114;2023-06-22T02:52:12;0.00;;;0.00;;
13441;SDS011;6793;55.662;13.114;2023-06-22T02:54:39;0.00;;;0.00;;
13441;SDS011;6793;55.662;13.114;2023-06-22T02:57:08;0.00;;;0.00;;
13441;SDS011;6793;55.662;13.114;2023-06-22T02:59:38;0.00;;;0.00;;
13441;SDS011;6793;55.662;13.114;2023-06-22T03:02:05;0.00;;;0.00;;
13441;SDS011;6793;55.662;13.114;2023-06-22T03:04:33;0.00;;;0.00;;
13441;SDS011;6793;55.662;13.114;2023-06-22T03:07:00;0.00;;;0.00;;
13441;SDS011;6793;55.662;13.114;2023-06-22T03:09:27;0.00;;;0.00;;
13441;SDS011;6793;55.662;13.114;2023-06-22T03:11:54;0.00;;;0.00;;
13441;SDS011;6793;55.662;13.114;2023-06-22T03:14:22;0.00;;;0.00;;
13441;SDS011;6793;55.662;13.114;2023-06-22T03:16:49;0.00;;;0.00;;
13441;SDS011;6793;55.662;13.114;2023-06-22T03:19:16;0.00;;;0.00;;
13441;SDS011;6793;55.662;13.114;2023-06-22T03:21:44;0.00;;;0.00;;
13441;SDS011;6793;55.662;13.114;2023-06-22T03:24:11;0.00;;;0.00;;
13441;SDS011;6793;55.662;13.114;2023-06-22T03:26:38;0.00;;;0.00;;
13441;SDS011;6793;55.662;13.114;2023-06-22T03:29:05;0.00;;;0.00;;
13441;SDS011;6793;55.662;13.114;2023-06-22T03:31:34;0.00;;;0.00;;
13441;SDS011;6793;55.662;13.114;2023-06-22T03:34:01;0.00;;;0.00;;
13441;SDS011;6793;55.662;13.114;2023-06-22T03:36:28;0.00;;;0.00;;
13441;SDS011;6793;55.662;13.114;2023-06-22T03:38:55;0.00;;;0.00;;
13441;SDS011;6793;55.662;13.114;2023-06-22T03:41:22;0.00;;;0.00;;
13441;SDS011;6793;55.662;13.114;2023-06-22T03:43:50;0.00;;;0.00;;
13441;SDS011;6793;55.662;13.114;2023-06-22T03:46:17;0.00;;;0.00;;
13441;SDS011;6793;55.662;13.114;2023-06-22T03:48:46;0.00;;;0.00;;
13441;SDS011;6793;55.662;13.114;2023-06-22T03:51:13;0.00;;;0.00;;
13441;SDS011;6793;55.662;13.114;2023-06-22T03:53:40;0.00;;;0.00;;
13441;SDS011;6793;55.662;13.114;2023-06-22T03:56:08;0.00;;;0.00;;
13441;SDS011;6793;55.662;13.114;2023-06-22T03:58:35;0.00;;;0.00;;
13441;SDS011;6793;55.662;13.114;2023-06-22T04:01:07;0.00;;;0.00;;
13441;SDS011;6793;55.662;13.114;2023-06-22T04:03:36;0.00;;;0.00;;
13441;SDS011;6793;55.662;13.114;2023-06-22T04:06:04;0.00;;;0.00;;
13441;SDS011;6793;55.662;13.114;2023-06-22T04:08:31;0.00;;;0.00;;
13441;SDS011;6793;55.662;13.114;2023-06-22T04:10:58;0.00;;;0.00;;
13441;SDS011;6793;55.662;13.114;2023-06-22T04:13:25;0.00;;;0.00;;
13441;SDS011;6793;55.662;13.114;2023-06-22T04:15:52;0.00;;;0.00;;
13441;SDS011;6793;55.662;13.114;2023-06-22T04:18:20;0.00;;;0.00;;
13441;SDS011;6793;55.662;13.114;2023-06-22T04:20:47;0.00;;;0.00;;
13441;SDS011;6793;55.662;13.114;2023-06-22T04:23:15;0.00;;;0.00;;
13441;SDS011;6793;55.662;13.114;2023-06-22T04:25:42;0.00;;;0.00;;
13441;SDS011;6793;55.662;13.114;2023-06-22T04:28:09;0.00;;;0.00;;
13441;SDS011;6793;55.662;13.114;2023-06-22T04:30:37;0.00;;;0.00;;
13441;SDS011;6793;55.662;13.114;2023-06-22T04:33:11;0.00;;;0.00;;
13441;SDS011;6793;55.662;13.114;2023-06-22T04:35:38;0.00;;;0.00;;
13441;SDS011;6793;55.662;13.114;2023-06-22T04:38:06;0.00;;;0.00;;
13441;SDS011;6793;55.662;13.114;2023-06-22T04:40:34;0.00;;;0.00;;
13441;SDS011;6793;55.662;13.114;2023-06-22T04:43:01;0.00;;;0.00;;
13441;SDS011;6793;55.662;13.114;2023-06-22T04:45:28;0.00;;;0.00;;
13441;SDS011;6793;55.662;13.114;2023-06-22T04:47:55;0.00;;;0.00;;
13441;SDS011;6793;55.662;13.114;2023-06-22T04:50:22;0.00;;;0.00;;
13441;SDS011;6793;55.662;13.114;2023-06-22T04:52:50;0.00;;;0.00;;
13441;SDS011;6793;55.662;13.114;2023-06-22T04:55:18;0.00;;;0.00;;
13441;SDS011;6793;55.662;13.114;2023-06-22T04:57:46;0.00;;;0.00;;
13441;SDS011;6793;55.662;13.114;2023-06-22T05:00:14;0.00;;;0.00;;
13441;SDS011;6793;55.662;13.114;2023-06-22T05:02:42;0.00;;;0.00;;
13441;SDS011;6793;55.662;13.114;2023-06-22T05:05:10;0.00;;;0.00;;
13441;SDS011;6793;55.662;13.114;2023-06-22T05:07:39;0.00;;;0.00;;
13441;SDS011;6793;55.662;13.114;2023-06-22T05:10:08;0.00;;;0.00;;
13441;SDS011;6793;55.662;13.114;2023-06-22T05:12:36;0.00;;;0.00;;
13441;SDS011;6793;55.662;13.114;2023-06-22T05:15:04;0.00;;;0.00;;
13441;SDS011;6793;55.662;13.114;2023-06-22T05:17:32;0.00;;;0.00;;
13441;SDS011;6793;55.662;13.114;2023-06-22T05:19:59;0.00;;;0.00;;
13441;SDS011;6793;55.662;13.114;2023-06-22T05:22:26;0.00;;;0.00;;
13441;SDS011;6793;55.662;13.114;2023-06-22T05:24:53;0.00;;;0.00;;
13441;SDS011;6793;55.662;13.114;2023-06-22T05:27:20;0.00;;;0.00;;
13441;SDS011;6793;55.662;13.114;2023-06-22T05:29:47;0.00;;;0.00;;
13441;SDS011;6793;55.662;13.114;2023-06-22T05:32:15;0.00;;;0.00;;
13441;SDS011;6793;55.662;13.114;2023-06-22T05:34:43;0.00;;;0.00;;
13441;SDS011;6793;55.662;13.114;2023-06-22T05:37:10;0.10;;;0.10;;
13441;SDS011;6793;55.662;13.114;2023-06-22T05:39:37;0.10;;;0.10;;
13441;SDS011;6793;55.662;13.114;2023-06-22T05:42:05;0.10;;;0.10;;
13441;SDS011;6793;55.662;13.114;2023-06-22T05:44:32;0.10;;;0.10;;
13441;SDS011;6793;55.662;13.114;2023-06-22T05:46:59;0.20;;;0.20;;
13441;SDS011;6793;55.662;13.114;2023-06-22T05:49:27;0.20;;;0.20;;
13441;SDS011;6793;55.662;13.114;2023-06-22T05:51:57;0.20;;;0.20;;
13441;SDS011;6793;55.662;13.114;2023-06-22T05:54:24;0.13;;;0.13;;
13441;SDS011;6793;55.662;13.114;2023-06-22T05:56:51;0.20;;;0.20;;
13441;SDS011;6793;55.662;13.114;2023-06-22T05:59:19;0.20;;;0.20;;
13441;SDS011;6793;55.662;13.114;2023-06-22T06:01:46;0.20;;;0.20;;
13441;SDS011;6793;55.662;13.114;2023-06-22T06:04:15;0.30;;;0.30;;
13441;SDS011;6793;55.662;13.114;2023-06-22T06:06:46;0.20;;;0.20;;
13441;SDS011;6793;55.662;13.114;2023-06-22T06:09:13;0.22;;;0.22;;
13441;SDS011;6793;55.662;13.114;2023-06-22T06:11:40;0.20;;;0.20;;
13441;SDS011;6793;55.662;13.114;2023-06-22T06:14:07;0.30;;;0.30;;
13441;SDS011;6793;55.662;13.114;2023-06-22T06:16:34;0.22;;;0.22;;
13441;SDS011;6793;55.662;13.114;2023-06-22T06:19:01;0.20;;;0.20;;
13441;SDS011;6793;55.662;13.114;2023-06-22T06:21:28;0.20;;;0.20;;
13441;SDS011;6793;55.662;13.114;2023-06-22T06:23:56;0.20;;;0.20;;
13441;SDS011;6793;55.662;13.114;2023-06-22T06:26:24;0.20;;;0.20;;
13441;SDS011;6793;55.662;13.114;2023-06-22T06:28:55;0.20;;;0.20;;
13441;SDS011;6793;55.662;13.114;2023-06-22T06:31:22;0.20;;;0.20;;
13441;SDS011;6793;55.662;13.114;2023-06-22T06:33:49;0.20;;;0.20;;
13441;SDS011;6793;55.662;13.114;2023-06-22T06:36:16;0.20;;;0.20;;
13441;SDS011;6793;55.662;13.114;2023-06-22T06:38:43;0.20;;;0.20;;
13441;SDS011;6793;55.662;13.114;2023-06-22T06:41:15;0.22;;;0.22;;
13441;SDS011;6793;55.662;13.114;2023-06-22T06:43:42;0.20;;;0.20;;
13441;SDS011;6793;55.662;13.114;2023-06-22T06:46:09;0.20;;;0.20;;
13441;SDS011;6793;55.662;13.114;2023-06-22T06:48:36;0.10;;;0.10;;
13441;SDS011;6793;55.662;13.114;2023-06-22T06:51:03;0.20;;;0.20;;
13441;SDS011;6793;55.662;13.114;2023-06-22T06:53:30;0.10;;;0.10;;
13441;SDS011;6793;55.662;13.114;2023-06-22T06:55:58;0.20;;;0.20;;
13441;SDS011;6793;55.662;13.114;2023-06-22T06:58:27;0.20;;;0.20;;
13441;SDS011;6793;55.662;13.114;2023-06-22T07:00:54;0.20;;;0.20;;
13441;SDS011;6793;55.662;13.114;2023-06-22T07:03:21;0.20;;;0.20;;
13441;SDS011;6793;55.662;13.114;2023-06-22T07:05:48;0.20;;;0.20;;
13441;SDS011;6793;55.662;13.114;2023-06-22T07:08:15;0.28;;;0.28;;
13441;SDS011;6793;55.662;13.114;2023-06-22T07:10:42;0.20;;;0.20;;
13441;SDS011;6793;55.662;13.114;2023-06-22T07:13:09;0.20;;;0.20;;
13441;SDS011;6793;55.662;13.114;2023-06-22T07:15:37;0.20;;;0.20;;
13441;SDS011;6793;55.662;13.114;2023-06-22T07:18:05;0.20;;;0.20;;
13441;SDS011;6793;55.662;13.114;2023-06-22T07:20:32;0.20;;;0.20;;
13441;SDS011;6793;55.662;13.114;2023-06-22T07:22:59;0.10;;;0.10;;
13441;SDS011;6793;55.662;13.114;2023-06-22T07:25:26;0.10;;;0.10;;
13441;SDS011;6793;55.662;13.114;2023-06-22T07:27:57;0.20;;;0.20;;
13441;SDS011;6793;55.662;13.114;2023-06-22T07:30:24;0.20;;;0.20;;
13441;SDS011;6793;55.662;13.114;2023-06-22T07:32:53;0.20;;;0.20;;
13441;SDS011;6793;55.662;13.114;2023-06-22T07:35:20;0.20;;;0.20;;
13441;SDS011;6793;55.662;13.114;2023-06-22T07:37:47;0.10;;;0.10;;
13441;SDS011;6793;55.662;13.114;2023-06-22T07:40:14;0.10;;;0.10;;
13441;SDS011;6793;55.662;13.114;2023-06-22T07:42:41;0.20;;;0.20;;
13441;SDS011;6793;55.662;13.114;2023-06-22T07:45:08;0.20;;;0.20;;
13441;SDS011;6793;55.662;13.114;2023-06-22T07:47:36;0.20;;;0.20;;
13441;SDS011;6793;55.662;13.114;2023-06-22T07:50:05;0.20;;;0.20;;
13441;SDS011;6793;55.662;13.114;2023-06-22T07:52:32;0.20;;;0.20;;
13441;SDS011;6793;55.662;13.114;2023-06-22T07:54:59;0.28;;;0.28;;
13441;SDS011;6793;55.662;13.114;2023-06-22T07:57:27;0.20;;;0.20;;
13441;SDS011;6793;55.662;13.114;2023-06-22T07:59:58;0.20;;;0.20;;
13441;SDS011;6793;55.662;13.114;2023-06-22T08:02:26;0.20;;;0.20;;
13441;SDS011;6793;55.662;13.114;2023-06-22T08:04:53;0.20;;;0.20;;
13441;SDS011;6793;55.662;13.114;2023-06-22T08:07:21;0.17;;;0.17;;
13441;SDS011;6793;55.662;13.114;2023-06-22T08:09:48;0.20;;;0.20;;
13441;SDS011;6793;55.662;13.114;2023-06-22T08:12:15;0.10;;;0.10;;
13441;SDS011;6793;55.662;13.114;2023-06-22T08:14:42;0.20;;;0.20;;
13441;SDS011;6793;55.662;13.114;2023-06-22T08:17:11;0.10;;;0.10;;
13441;SDS011;6793;55.662;13.114;2023-06-22T08:19:39;0.10;;;0.10;;
13441;SDS011;6793;55.662;13.114;2023-06-22T08:22:06;0.10;;;0.10;;
13441;SDS011;6793;55.662;13.114;2023-06-22T08:24:35;0.10;;;0.10;;
13441;SDS011;6793;55.662;13.114;2023-06-22T08:27:02;0.13;;;0.13;;
13441;SDS011;6793;55.662;13.114;2023-06-22T08:29:29;0.20;;;0.20;;
13441;SDS011;6793;55.662;13.114;2023-06-22T08:31:56;0.10;;;0.10;;
13441;SDS011;6793;55.662;13.114;2023-06-22T08:34:23;0.13;;;0.13;;
13441;SDS011;6793;55.662;13.114;2023-06-22T08:36:50;0.20;;;0.20;;
13441;SDS011;6793;55.662;13.114;2023-06-22T08:39:17;0.20;;;0.20;;
13441;SDS011;6793;55.662;13.114;2023-06-22T08:41:46;0.20;;;0.20;;
13441;SDS011;6793;55.662;13.114;2023-06-22T08:44:13;0.20;;;0.20;;
13441;SDS011;6793;55.662;13.114;2023-06-22T08:46:40;0.20;;;0.20;;
13441;SDS011;6793;55.662;13.114;2023-06-22T08:49:07;0.20;;;0.20;;
13441;SDS011;6793;55.662;13.114;2023-06-22T08:51:35;0.13;;;0.13;;
13441;SDS011;6793;55.662;13.114;2023-06-22T08:54:02;0.20;;;0.20;;
13441;SDS011;6793;55.662;13.114;2023-06-22T08:56:30;0.20;;;0.20;;
13441;SDS011;6793;55.662;13.114;2023-06-22T08:58:58;0.20;;;0.20;;
13441;SDS011;6793;55.662;13.114;2023-06-22T09:01:25;0.25;;;0.25;;
13441;SDS011;6793;55.662;13.114;2023-06-22T09:03:52;0.20;;;0.20;;
13441;SDS011;6793;55.662;13.114;2023-06-22T09:06:23;0.20;;;0.20;;
13441;SDS011;6793;55.662;13.114;2023-06-22T09:08:50;0.20;;;0.20;;
13441;SDS011;6793;55.662;13.114;2023-06-22T09:11:17;0.30;;;0.30;;
13441;SDS011;6793;55.662;13.114;2023-06-22T09:13:44;0.20;;;0.20;;
13441;SDS011;6793;55.662;13.114;2023-06-22T09:16:12;0.20;;;0.20;;
13441;SDS011;6793;55.662;13.114;2023-06-22T09:18:39;0.20;;;0.20;;
13441;SDS011;6793;55.662;13.114;2023-06-22T09:21:07;0.30;;;0.30;;
13441;SDS011;6793;55.662;13.114;2023-06-22T09:23:34;0.28;;;0.28;;
13441;SDS011;6793;55.662;13.114;2023-06-22T09:26:01;0.20;;;0.20;;
13441;SDS011;6793;55.662;13.114;2023-06-22T09:28:29;0.22;;;0.22;;
13441;SDS011;6793;55.662;13.114;2023-06-22T09:30:56;0.30;;;0.30;;
13441;SDS011;6793;55.662;13.114;2023-06-22T09:33:25;0.20;;;0.20;;
13441;SDS011;6793;55.662;13.114;2023-06-22T09:35:52;0.30;;;0.30;;
13441;SDS011;6793;55.662;13.114;2023-06-22T09:38:19;0.20;;;0.20;;
13441;SDS011;6793;55.662;13.114;2023-06-22T09:40:46;0.20;;;0.20;;
13441;SDS011;6793;55.662;13.114;2023-06-22T09:43:13;0.30;;;0.30;;
13441;SDS011;6793;55.662;13.114;2023-06-22T09:45:40;0.20;;;0.20;;
13441;SDS011;6793;55.662;13.114;2023-06-22T09:48:08;0.30;;;0.30;;
13441;SDS011;6793;55.662;13.114;2023-06-22T09:50:37;0.30;;;0.30;;
13441;SDS011;6793;55.662;13.114;2023-06-22T09:53:04;0.30;;;0.30;;
13441;SDS011;6793;55.662;13.114;2023-06-22T09:55:31;0.40;;;0.40;;
13441;SDS011;6793;55.662;13.114;2023-06-22T09:57:58;0.40;;;0.40;;
13441;SDS011;6793;55.662;13.114;2023-06-22T10:00:25;0.30;;;0.30;;
13441;SDS011;6793;55.662;13.114;2023-06-22T10:02:52;0.40;;;0.40;;
13441;SDS011;6793;55.662;13.114;2023-06-22T10:05:20;0.30;;;0.30;;
13441;SDS011;6793;55.662;13.114;2023-06-22T10:07:49;0.30;;;0.30;;
13441;SDS011;6793;55.662;13.114;2023-06-22T10:10:16;0.30;;;0.30;;
13441;SDS011;6793;55.662;13.114;2023-06-22T10:12:45;0.30;;;0.30;;
13441;SDS011;6793;55.662;13.114;2023-06-22T10:15:12;0.20;;;0.20;;
13441;SDS011;6793;55.662;13.114;2023-06-22T10:17:40;0.30;;;0.30;;
13441;SDS011;6793;55.662;13.114;2023-06-22T10:20:07;0.20;;;0.20;;
13441;SDS011;6793;55.662;13.114;2023-06-22T10:22:38;0.20;;;0.20;;
13441;SDS011;6793;55.662;13.114;2023-06-22T10:25:07;0.20;;;0.20;;
13441;SDS011;6793;55.662;13.114;2023-06-22T10:27:35;0.40;;;0.40;;
13441;SDS011;6793;55.662;13.114;2023-06-22T10:30:05;0.40;;;0.40;;
13441;SDS011;6793;55.662;13.114;2023-06-22T10:32:32;0.25;;;0.25;;
13441;SDS011;6793;55.662;13.114;2023-06-22T10:34:59;0.30;;;0.30;;
13441;SDS011;6793;55.662;13.114;2023-06-22T10:37:26;0.30;;;0.30;;
13441;SDS011;6793;55.662;13.114;2023-06-22T10:39:53;0.30;;;0.30;;
13441;SDS011;6793;55.662;13.114;2023-06-22T10:42:21;0.30;;;0.30;;
13441;SDS011;6793;55.662;13.114;2023-06-22T10:44:48;0.30;;;0.30;;
13441;SDS011;6793;55.662;13.114;2023-06-22T10:47:16;0.30;;;0.30;;
13441;SDS011;6793;55.662;13.114;2023-06-22T10:49:43;0.30;;;0.30;;
13441;SDS011;6793;55.662;13.114;2023-06-22T10:52:10;0.30;;;0.30;;
13441;SDS011;6793;55.662;13.114;2023-06-22T10:54:37;0.30;;;0.30;;
13441;SDS011;6793;55.662;13.114;2023-06-22T10:57:04;0.20;;;0.20;;
13441;SDS011;6793;55.662;13.114;2023-06-22T10:59:33;0.20;;;0.20;;
13441;SDS011;6793;55.662;13.114;2023-06-22T11:02:00;0.20;;;0.20;;
13441;SDS011;6793;55.662;13.114;2023-06-22T11:04:27;0.30;;;0.30;;
13441;SDS011;6793;55.662;13.114;2023-06-22T11:06:54;0.30;;;0.30;;
13441;SDS011;6793;55.662;13.114;2023-06-22T11:09:22;0.20;;;0.20;;
13441;SDS011;6793;55.662;13.114;2023-06-22T11:11:49;0.20;;;0.20;;
13441;SDS011;6793;55.662;13.114;2023-06-22T11:14:18;0.10;;;0.10;;
13441;SDS011;6793;55.662;13.114;2023-06-22T11:16:46;0.10;;;0.10;;
13441;SDS011;6793;55.662;13.114;2023-06-22T11:19:13;0.10;;;0.10;;
13441;SDS011;6793;55.662;13.114;2023-06-22T11:21:40;0.10;;;0.10;;
13441;SDS011;6793;55.662;13.114;2023-06-22T11:24:07;0.10;;;0.10;;
13441;SDS011;6793;55.662;13.114;2023-06-22T11:26:34;0.20;;;0.20;;
13441;SDS011;6793;55.662;13.114;2023-06-22T11:29:02;0.10;;;0.10;;
13441;SDS011;6793;55.662;13.114;2023-06-22T11:31:30;0.10;;;0.10;;
13441;SDS011;6793;55.662;13.114;2023-06-22T11:33:58;0.13;;;0.13;;
13441;SDS011;6793;55.662;13.114;2023-06-22T11:36:25;0.20;;;0.20;;
13441;SDS011;6793;55.662;13.114;2023-06-22T11:38:54;0.10;;;0.10;;
13441;SDS011;6793;55.662;13.114;2023-06-22T11:41:21;0.10;;;0.10;;
13441;SDS011;6793;55.662;13.114;2023-06-22T11:43:48;0.20;;;0.20;;
13441;SDS011;6793;55.662;13.114;2023-06-22T11:46:15;0.20;;;0.20;;
13441;SDS011;6793;55.662;13.114;2023-06-22T11:48:42;0.20;;;0.20;;
13441;SDS011;6793;55.662;13.114;2023-06-22T11:51:10;0.20;;;0.20;;
13441;SDS011;6793;55.662;13.114;2023-06-22T11:53:37;0.20;;;0.20;;
13441;SDS011;6793;55.662;13.114;2023-06-22T11:56:04;0.20;;;0.20;;
13441;SDS011;6793;55.662;13.114;2023-06-22T11:58:31;0.20;;;0.20;;
13441;SDS011;6793;55.662;13.114;2023-06-22T12:00:58;0.30;;;0.30;;
13441;SDS011;6793;55.662;13.114;2023-06-22T12:03:25;0.30;;;0.30;;
13441;SDS011;6793;55.662;13.114;2023-06-22T12:05:52;0.30;;;0.30;;
13441;SDS011;6793;55.662;13.114;2023-06-22T12:08:21;0.30;;;0.30;;
13441;SDS011;6793;55.662;13.114;2023-06-22T12:10:49;0.30;;;0.30;;
13441;SDS011;6793;55.662;13.114;2023-06-22T12:13:16;0.30;;;0.30;;
13441;SDS011;6793;55.662;13.114;2023-06-22T12:15:44;0.40;;;0.40;;
13441;SDS011;6793;55.662;13.114;2023-06-22T12:18:11;0.20;;;0.20;;
13441;SDS011;6793;55.662;13.114;2023-06-22T12:20:39;0.20;;;0.20;;
13441;SDS011;6793;55.662;13.114;2023-06-22T12:23:06;0.30;;;0.30;;
13441;SDS011;6793;55.662;13.114;2023-06-22T12:25:34;0.30;;;0.30;;
13441;SDS011;6793;55.662;13.114;2023-06-22T12:28:01;0.30;;;0.30;;
13441;SDS011;6793;55.662;13.114;2023-06-22T12:30:29;0.25;;;0.25;;
13441;SDS011;6793;55.662;13.114;2023-06-22T12:32:56;0.30;;;0.30;;
13441;SDS011;6793;55.662;13.114;2023-06-22T12:35:23;0.30;;;0.30;;
13441;SDS011;6793;55.662;13.114;2023-06-22T12:37:50;0.25;;;0.25;;
13441;SDS011;6793;55.662;13.114;2023-06-22T12:40:17;0.30;;;0.30;;
13441;SDS011;6793;55.662;13.114;2023-06-22T12:42:46;0.30;;;0.30;;
13441;SDS011;6793;55.662;13.114;2023-06-22T12:45:13;0.30;;;0.30;;
13441;SDS011;6793;55.662;13.114;2023-06-22T12:47:40;0.30;;;0.30;;
13441;SDS011;6793;55.662;13.114;2023-06-22T12:50:08;0.40;;;0.40;;
13441;SDS011;6793;55.662;13.114;2023-06-22T12:52:36;0.40;;;0.40;;
13441;SDS011;6793;55.662;13.114;2023-06-22T12:55:06;0.30;;;0.30;;
13441;SDS011;6793;55.662;13.114;2023-06-22T12:57:33;0.47;;;0.47;;
13441;SDS011;6793;55.662;13.114;2023-06-22T13:00:02;0.50;;;0.50;;
13441;SDS011;6793;55.662;13.114;2023-06-22T13:02:30;0.50;;;0.50;;
13441;SDS011;6793;55.662;13.114;2023-06-22T13:04:57;0.30;;;0.30;;
13441;SDS011;6793;55.662;13.114;2023-06-22T13:07:24;0.40;;;0.40;;
13441;SDS011;6793;55.662;13.114;2023-06-22T13:09:51;0.20;;;0.20;;
13441;SDS011;6793;55.662;13.114;2023-06-22T13:12:18;0.22;;;0.22;;
13441;SDS011;6793;55.662;13.114;2023-06-22T13:14:46;0.20;;;0.20;;
13441;SDS011;6793;55.662;13.114;2023-06-22T13:17:14;0.40;;;0.40;;
13441;SDS011;6793;55.662;13.114;2023-06-22T13:19:41;0.20;;;0.20;;
13441;SDS011;6793;55.662;13.114;2023-06-22T13:22:25;0.20;;;0.20;;
13441;SDS011;6793;55.662;13.114;2023-06-22T13:24:52;0.30;;;0.30;;
13441;SDS011;6793;55.662;13.114;2023-06-22T13:27:19;0.20;;;0.20;;
13441;SDS011;6793;55.662;13.114;2023-06-22T13:29:46;0.32;;;0.32;;
13441;SDS011;6793;55.662;13.114;2023-06-22T13:32:14;0.40;;;0.40;;
13441;SDS011;6793;55.662;13.114;2023-06-22T13:34:41;0.38;;;0.38;;
13441;SDS011;6793;55.662;13.114;2023-06-22T13:37:08;0.40;;;0.40;;
13441;SDS011;6793;55.662;13.114;2023-06-22T13:39:35;0.30;;;0.30;;
13441;SDS011;6793;55.662;13.114;2023-06-22T13:42:02;0.30;;;0.30;;
13441;SDS011;6793;55.662;13.114;2023-06-22T13:44:29;0.38;;;0.38;;
13441;SDS011;6793;55.662;13.114;2023-06-22T13:46:57;0.40;;;0.40;;
13441;SDS011;6793;55.662;13.114;2023-06-22T13:49:25;0.30;;;0.30;;
13441;SDS011;6793;55.662;13.114;2023-06-22T13:51:52;0.30;;;0.30;;
13441;SDS011;6793;55.662;13.114;2023-06-22T13:54:19;0.30;;;0.30;;
13441;SDS011;6793;55.662;13.114;2023-06-22T13:56:46;0.30;;;0.30;;
13441;SDS011;6793;55.662;13.114;2023-06-22T13:59:13;0.30;;;0.30;;
13441;SDS011;6793;55.662;13.114;2023-06-22T14:01:40;0.40;;;0.40;;
13441;SDS011;6793;55.662;13.114;2023-06-22T14:04:08;0.30;;;0.30;;
13441;SDS011;6793;55.662;13.114;2023-06-22T14:06:37;0.40;;;0.40;;
13441;SDS011;6793;55.662;13.114;2023-06-22T14:09:04;0.30;;;0.30;;
13441;SDS011;6793;55.662;13.114;2023-06-22T14:11:32;0.40;;;0.40;;
13441;SDS011;6793;55.662;13.114;2023-06-22T14:13:59;0.40;;;0.40;;
13441;SDS011;6793;55.662;13.114;2023-06-22T14:16:26;0.40;;;0.40;;
13441;SDS011;6793;55.662;13.114;2023-06-22T14:18:53;0.30;;;0.30;;
13441;SDS011;6793;55.662;13.114;2023-06-22T14:21:20;0.40;;;0.40;;
13441;SDS011;6793;55.662;13.114;2023-06-22T14:23:48;0.40;;;0.40;;
13441;SDS011;6793;55.662;13.114;2023-06-22T14:26:15;0.40;;;0.40;;
13441;SDS011;6793;55.662;13.114;2023-06-22T14:28:43;0.30;;;0.30;;
13441;SDS011;6793;55.662;13.114;2023-06-22T14:31:12;0.40;;;0.40;;
13441;SDS011;6793;55.662;13.114;2023-06-22T14:33:39;0.30;;;0.30;;
13441;SDS011;6793;55.662;13.114;2023-06-22T14:36:06;0.30;;;0.30;;
13441;SDS011;6793;55.662;13.114;2023-06-22T14:38:33;0.30;;;0.30;;
13441;SDS011;6793;55.662;13.114;2023-06-22T14:41:02;0.30;;;0.30;;
13441;SDS011;6793;55.662;13.114;2023-06-22T14:43:29;0.30;;;0.30;;
13441;SDS011;6793;55.662;13.114;2023-06-22T14:45:56;0.30;;;0.30;;
13441;SDS011;6793;55.662;13.114;2023-06-22T14:48:23;0.20;;;0.20;;
13441;SDS011;6793;55.662;13.114;2023-06-22T14:50:50;0.30;;;0.30;;